Wyocena, WI

9:48 AM CDT on October 23, 2014 (GMT -0500)
Pankow | Change Station
CLOSE
Current Station
Personal Weather Station
Location: Poynette, WI
Elevation: 886 ft
Nearby Weather Stations

Elev 886 ft 43.42 °N, 89.37 °W | Updated 13 minutes ago

Overcast
Overcast
46.5 °F
Feels Like 46 °F
N
1.0
Wind Variable Wind from SSE
Gusts 5.0 mph

Today
High -- | Low -- °F
--% Chance of Precip.
Yesterday
High -- | Low -- °F
Precip. -- in
7:21 AM 6:01 PM
Waning Crescent, 0% visible
Pressure 30.10 in
Visibility 10.0 miles
Clouds Overcast 4000 ft
Windchill 46 °F
Dew Point 40 °F
Humidity 78%
Rainfall 0.00 in
Snow Depth Not available.
UV 0 out of 12
Pollen .30 out of 12
Air Quality Not available.
Flu Activity Sporadic
METAR KDLL 231415Z AUTO 18008KT 10SM OVC040 08/02 A3010 RMK AO2 T00780020

More Conditions Fewer Conditions

Pressure 30.10 in
Visibility 10.0 miles
Clouds Overcast 4000 ft
Windchill 46 °F
Dew Point 40 °F
Humidity 78%
Rainfall 0.00 in
Snow Depth Not available.
UV 0 out of 12
Pollen .30 out of 12
Air Quality Not available.
Flu Activity Sporadic
METAR KDLL 231415Z AUTO 18008KT 10SM OVC040 08/02 A3010 RMK AO2 T00780020

More Conditions Fewer Conditions

10-Day Weather Forecast

Almanac

Astronomy

Oct. 23, 2014 Rise Set
Actual Time 7:21 AM CDT 6:01 PM CDT
Civil Twilight 6:51 AM CDT 6:30 PM CDT
Nautical Twilight 6:18 AM CDT 7:03 PM CDT
Astronomical Twilight 5:45 AM CDT 7:36 PM CDT
Moon 7:00 AM CDT 6:02 PM CDT
Length of Visible Light 11h 38m
Length of Day
10h 40m
Tomorrow will be 2m 47s shorter.
Waning Crescent, 0% of the Moon is Illuminated
Today
Waning Crescent
Oct 23
New
Oct 30
First Quarter
Nov 6
Full
Nov 14
Last Quarter

Today's Extremes

State Highs State Lows

Community

WunderPhotos

Upload Photos

1,764,272 photos uploaded!

WunderBlogs® & News

Nearby

Snow Depth

Station Depth Elevation
No new snow has been reported.

Earthquake Activity

City Distance Mag. Time & Date
No recent earthquake activity has been reported nearby.
Minimum magnitude displayed is 2.5.

Coastal Water Temperatures

Place Temperature
No Stations Reporting

Nearby Weather Stations